createdAt,value
2023-01-08T00:00:26.853Z,11.87
2023-01-08T00:02:55.362Z,13.57
2023-01-08T00:05:23.739Z,14.07
2023-01-08T00:07:51.551Z,13.30
2023-01-08T00:10:21.102Z,13.33
2023-01-08T00:12:48.680Z,13.10
2023-01-08T00:15:17.128Z,14.00
2023-01-08T00:17:45.497Z,14.20
2023-01-08T00:20:13.357Z,14.97
2023-01-08T00:22:41.663Z,15.90
2023-01-08T00:25:11.158Z,12.97
2023-01-08T00:27:39.511Z,17.40
2023-01-08T00:30:08.541Z,12.73
2023-01-08T00:32:36.956Z,16.50
2023-01-08T00:35:05.909Z,15.40
2023-01-08T00:37:34.374Z,15.90
2023-01-08T00:40:02.771Z,20.67
2023-01-08T00:42:31.272Z,23.27
2023-01-08T00:44:59.603Z,16.10
2023-01-08T00:47:28.119Z,18.73
2023-01-08T00:49:56.487Z,18.73
2023-01-08T00:52:24.124Z,16.07
2023-01-08T00:54:52.543Z,16.80
2023-01-08T00:57:21.094Z,15.13
2023-01-08T00:59:50.872Z,16.83
2023-01-08T01:02:18.641Z,15.73
2023-01-08T01:04:46.980Z,14.37
2023-01-08T01:07:15.426Z,11.73
2023-01-08T01:09:43.033Z,14.80
2023-01-08T01:12:11.318Z,13.00
2023-01-08T01:14:39.221Z,12.80
2023-01-08T01:17:06.803Z,14.67
2023-01-08T01:19:36.232Z,14.93
2023-01-08T01:22:04.011Z,14.63
2023-01-08T01:24:31.982Z,11.97
2023-01-08T01:27:00.483Z,12.37
2023-01-08T01:29:28.645Z,12.77
2023-01-08T01:31:58.875Z,12.43
2023-01-08T01:34:27.638Z,8.90
2023-01-08T01:36:56.723Z,9.03
2023-01-08T01:39:26.202Z,10.27
2023-01-08T01:41:54.482Z,10.30
2023-01-08T01:44:45.256Z,11.00
2023-01-08T01:47:34.296Z,10.80
2023-01-08T01:50:12.508Z,9.50
2023-01-08T01:52:49.164Z,9.23
2023-01-08T01:55:19.491Z,9.20
2023-01-08T01:57:59.806Z,8.67
2023-01-08T02:00:28.511Z,8.80
2023-01-08T02:02:56.820Z,9.30
2023-01-08T02:05:33.408Z,8.70
2023-01-08T02:08:15.412Z,9.80
2023-01-08T02:10:56.787Z,8.60
2023-01-08T02:13:30.026Z,9.90
2023-01-08T02:16:19.642Z,9.13
2023-01-08T02:18:55.881Z,9.53
2023-01-08T02:21:52.526Z,8.83
2023-01-08T02:24:30.525Z,8.53
2023-01-08T02:27:01.317Z,11.73
2023-01-08T02:29:32.354Z,7.67
2023-01-08T02:32:00.932Z,8.87
2023-01-08T02:34:32.064Z,6.93
2023-01-08T02:37:01.285Z,7.50
2023-01-08T02:39:44.525Z,7.27
2023-01-08T02:43:01.330Z,7.60
2023-01-08T02:45:57.106Z,6.97
2023-01-08T02:48:45.003Z,7.37
2023-01-08T02:51:35.628Z,8.13
2023-01-08T02:54:09.955Z,6.67
2023-01-08T02:56:43.636Z,7.10
2023-01-08T02:59:14.256Z,6.50
2023-01-08T03:01:43.941Z,6.27
2023-01-08T03:04:21.827Z,5.90
2023-01-08T03:06:49.576Z,5.87
2023-01-08T03:09:17.374Z,6.60
2023-01-08T03:12:15.579Z,5.80
2023-01-08T03:15:07.745Z,5.33
2023-01-08T03:17:48.641Z,5.53
2023-01-08T03:20:19.468Z,5.33
2023-01-08T03:22:57.362Z,5.07
2023-01-08T03:25:30.086Z,5.27
2023-01-08T03:28:03.713Z,4.63
2023-01-08T03:30:31.530Z,4.87
2023-01-08T03:33:01.288Z,5.57
2023-01-08T03:35:32.379Z,4.03
2023-01-08T03:38:13.051Z,4.53
2023-01-08T03:40:45.559Z,3.67
2023-01-08T03:43:15.298Z,3.70
2023-01-08T03:45:54.575Z,2.73
2023-01-08T03:48:25.129Z,3.37
2023-01-08T03:50:54.482Z,3.07
2023-01-08T03:53:22.213Z,2.93
2023-01-08T03:55:49.862Z,3.33
2023-01-08T03:58:16.851Z,3.40
2023-01-08T04:00:44.835Z,3.37
2023-01-08T04:03:11.851Z,3.23
2023-01-08T04:05:39.465Z,3.10
2023-01-08T04:08:07.214Z,2.93
2023-01-08T04:10:34.915Z,3.03
2023-01-08T04:13:02.684Z,3.00
2023-01-08T04:15:31.226Z,4.10
2023-01-08T04:18:00.689Z,2.83
2023-01-08T04:20:29.399Z,3.67
2023-01-08T04:22:57.730Z,2.90
2023-01-08T04:25:27.659Z,3.17
2023-01-08T04:27:54.548Z,2.30
2023-01-08T04:30:23.030Z,3.20
2023-01-08T04:32:51.547Z,2.93
2023-01-08T04:35:19.351Z,2.60
2023-01-08T04:37:47.195Z,2.73
2023-01-08T04:40:15.674Z,2.50
2023-01-08T04:42:44.875Z,2.87
2023-01-08T04:45:13.280Z,2.47
2023-01-08T04:47:41.740Z,2.90
2023-01-08T04:50:10.502Z,3.00
2023-01-08T04:52:38.207Z,2.87
2023-01-08T04:55:05.581Z,2.30
2023-01-08T04:57:34.096Z,2.60
2023-01-08T05:00:02.413Z,3.13
2023-01-08T05:02:31.573Z,2.40
2023-01-08T05:05:00.230Z,2.63
2023-01-08T05:07:29.926Z,2.60
2023-01-08T05:09:57.635Z,2.60
2023-01-08T05:12:24.605Z,2.50
2023-01-08T05:14:52.955Z,2.47
2023-01-08T05:17:20.793Z,2.30
2023-01-08T05:19:47.687Z,2.40
2023-01-08T05:22:14.609Z,1.80
2023-01-08T05:24:42.265Z,1.77
2023-01-08T05:27:10.319Z,1.83
2023-01-08T05:29:37.251Z,1.87
2023-01-08T05:32:06.521Z,2.07
2023-01-08T05:34:35.336Z,1.80
2023-01-08T05:37:02.291Z,2.00
2023-01-08T05:39:30.642Z,2.13
2023-01-08T05:41:58.299Z,2.53
2023-01-08T05:44:26.632Z,2.37
2023-01-08T05:46:55.194Z,2.30
2023-01-08T05:49:23.923Z,2.13
2023-01-08T05:51:51.194Z,2.03
2023-01-08T05:54:18.085Z,1.93
2023-01-08T05:56:45.942Z,2.20
2023-01-08T05:59:13.757Z,2.40
2023-01-08T06:01:41.466Z,2.00
2023-01-08T06:04:09.227Z,2.10
2023-01-08T06:06:38.003Z,2.77
2023-01-08T06:09:09.185Z,2.00
2023-01-08T06:11:37.506Z,2.30
2023-01-08T06:14:05.133Z,2.23
2023-01-08T06:16:32.786Z,1.90
2023-01-08T06:19:00.439Z,2.00
2023-01-08T06:21:27.437Z,2.03
2023-01-08T06:23:54.351Z,2.10
2023-01-08T06:26:22.311Z,2.10
2023-01-08T06:28:49.976Z,2.00
2023-01-08T06:31:17.028Z,2.20
2023-01-08T06:33:44.663Z,2.40
2023-01-08T06:36:13.458Z,2.17
2023-01-08T06:38:41.125Z,2.40
2023-01-08T06:41:10.383Z,2.07
2023-01-08T06:43:38.770Z,2.50
2023-01-08T06:46:08.852Z,2.70
2023-01-08T06:48:37.559Z,2.30
2023-01-08T06:51:06.241Z,2.50
2023-01-08T06:53:33.797Z,2.37
2023-01-08T06:56:02.225Z,2.63
2023-01-08T06:58:30.457Z,2.37
2023-01-08T07:00:59.465Z,2.77
2023-01-08T07:03:28.695Z,2.60
2023-01-08T07:05:57.384Z,2.30
2023-01-08T07:08:27.101Z,2.43
2023-01-08T07:10:54.764Z,2.57
2023-01-08T07:13:24.372Z,2.40
2023-01-08T07:15:52.834Z,2.63
2023-01-08T07:18:21.140Z,2.57
2023-01-08T07:20:51.040Z,2.80
2023-01-08T07:23:19.421Z,2.43
2023-01-08T07:25:48.359Z,2.30
2023-01-08T07:28:16.324Z,2.50
2023-01-08T07:30:44.801Z,2.90
2023-01-08T07:33:13.175Z,2.73
2023-01-08T07:35:40.807Z,2.83
2023-01-08T07:38:07.782Z,2.80
2023-01-08T07:40:36.217Z,2.70
2023-01-08T07:43:04.965Z,3.07
2023-01-08T07:45:32.655Z,2.80
2023-01-08T07:48:00.878Z,3.47
2023-01-08T07:50:30.300Z,3.63
2023-01-08T07:53:01.970Z,4.70
2023-01-08T07:55:31.363Z,4.30
2023-01-08T07:57:59.952Z,5.30
2023-01-08T08:00:28.367Z,6.13
2023-01-08T08:03:03.330Z,5.90
2023-01-08T08:05:30.550Z,6.60
2023-01-08T08:07:58.187Z,6.60
2023-01-08T08:10:25.907Z,6.40
2023-01-08T08:12:55.618Z,6.17
2023-01-08T08:15:22.579Z,6.70
2023-01-08T08:17:50.222Z,6.43
2023-01-08T08:20:18.651Z,6.07
2023-01-08T08:22:46.260Z,5.73
2023-01-08T08:25:16.767Z,5.30
2023-01-08T08:27:45.631Z,5.33
2023-01-08T08:30:13.911Z,4.77
2023-01-08T08:32:40.824Z,4.63
2023-01-08T08:35:09.449Z,4.30
2023-01-08T08:37:39.325Z,3.87
2023-01-08T08:40:07.830Z,3.97
2023-01-08T08:42:35.566Z,3.87
2023-01-08T08:45:02.524Z,4.60
2023-01-08T08:47:32.217Z,3.60
2023-01-08T08:50:02.247Z,3.53
2023-01-08T08:52:31.542Z,3.60
2023-01-08T08:54:58.496Z,3.70
2023-01-08T08:57:26.850Z,4.37
2023-01-08T08:59:54.465Z,4.63
2023-01-08T09:02:23.793Z,6.20
2023-01-08T09:04:52.983Z,5.23
2023-01-08T09:07:23.097Z,7.77
2023-01-08T09:09:51.402Z,8.90
2023-01-08T09:12:19.723Z,14.37
2023-01-08T09:14:50.246Z,11.10
2023-01-08T09:17:18.625Z,22.67
2023-01-08T09:19:47.291Z,19.30
2023-01-08T09:22:15.606Z,16.00
2023-01-08T09:24:44.023Z,21.77
2023-01-08T09:27:14.474Z,23.87
2023-01-08T09:29:42.897Z,24.57
2023-01-08T09:32:12.062Z,23.70
2023-01-08T09:34:41.595Z,19.33
2023-01-08T09:37:10.085Z,24.77
2023-01-08T09:39:42.285Z,22.53
2023-01-08T09:42:13.094Z,23.43
2023-01-08T09:44:43.547Z,22.43
2023-01-08T09:47:47.707Z,17.90
2023-01-08T09:50:16.123Z,29.93
2023-01-08T09:52:44.608Z,16.77
2023-01-08T09:55:16.608Z,20.90
2023-01-08T09:57:46.946Z,26.00
2023-01-08T10:00:21.285Z,34.77
2023-01-08T10:02:51.915Z,17.57
2023-01-08T10:05:20.430Z,35.60
2023-01-08T10:07:48.786Z,31.60
2023-01-08T10:10:20.931Z,43.23
2023-01-08T10:12:51.309Z,18.00
2023-01-08T10:15:23.065Z,18.90
2023-01-08T10:18:02.719Z,24.53
2023-01-08T10:20:33.199Z,33.47
2023-01-08T10:23:15.452Z,41.23
2023-01-08T10:25:58.335Z,21.73
2023-01-08T10:28:32.570Z,38.73
2023-01-08T10:31:20.230Z,47.57
2023-01-08T10:33:50.062Z,24.63
2023-01-08T10:36:24.275Z,22.13
2023-01-08T10:39:00.184Z,23.93
2023-01-08T10:41:30.577Z,28.17
2023-01-08T10:44:03.254Z,30.83
2023-01-08T10:46:53.635Z,41.90
2023-01-08T10:49:45.484Z,21.83
2023-01-08T10:52:34.057Z,32.57
2023-01-08T10:55:32.299Z,35.83
2023-01-08T10:58:03.110Z,18.97
2023-01-08T11:00:35.188Z,28.07
2023-01-08T11:03:18.200Z,20.77
2023-01-08T11:05:47.480Z,24.53
2023-01-08T11:08:23.018Z,35.97
2023-01-08T11:10:57.046Z,34.10
2023-01-08T11:13:27.084Z,61.10
2023-01-08T11:16:14.202Z,43.33
2023-01-08T11:18:49.589Z,29.20
2023-01-08T11:21:31.607Z,24.67
2023-01-08T11:24:18.133Z,24.30
2023-01-08T11:27:11.499Z,36.17
2023-01-08T11:29:53.366Z,28.40
2023-01-08T11:32:50.875Z,34.60
2023-01-08T11:35:20.802Z,21.80
2023-01-08T11:38:00.563Z,25.33
2023-01-08T11:40:51.085Z,22.93
2023-01-08T11:43:45.027Z,23.80
2023-01-08T11:46:27.980Z,24.97
2023-01-08T11:49:36.354Z,41.93
2023-01-08T11:52:12.087Z,40.63
2023-01-08T11:55:06.134Z,36.90
2023-01-08T11:57:55.492Z,23.97
2023-01-08T12:01:03.332Z,37.33
2023-01-08T12:03:44.861Z,25.37
2023-01-08T12:06:23.183Z,23.80
2023-01-08T12:09:04.398Z,40.43
2023-01-08T12:11:58.645Z,35.63
2023-01-08T12:14:40.622Z,24.87
2023-01-08T12:17:50.347Z,23.57
2023-01-08T12:20:39.535Z,37.73
2023-01-08T12:23:36.813Z,25.23
2023-01-08T12:26:32.191Z,30.67
2023-01-08T12:29:09.293Z,21.70
2023-01-08T12:32:19.648Z,20.87
2023-01-08T12:34:52.403Z,21.90
2023-01-08T12:37:42.107Z,23.23
2023-01-08T12:40:34.373Z,26.57
2023-01-08T12:43:09.264Z,23.93
2023-01-08T12:45:43.718Z,33.33
2023-01-08T12:48:22.001Z,39.23
2023-01-08T12:51:17.963Z,28.10
2023-01-08T12:54:21.259Z,26.50
2023-01-08T12:57:08.137Z,37.60
2023-01-08T13:00:02.006Z,25.73
2023-01-08T13:02:52.226Z,35.00
2023-01-08T13:05:20.607Z,26.27
2023-01-08T13:07:54.245Z,31.53
2023-01-08T13:10:35.411Z,28.23
2023-01-08T13:13:08.896Z,30.50
2023-01-08T13:15:37.244Z,26.73
2023-01-08T13:18:18.215Z,25.47
2023-01-08T13:20:58.133Z,27.80
2023-01-08T13:23:29.869Z,29.20
2023-01-08T13:26:00.001Z,31.03
2023-01-08T13:28:37.598Z,35.47
2023-01-08T13:31:21.382Z,26.20
2023-01-08T13:33:52.635Z,25.03
2023-01-08T13:36:25.985Z,26.40
2023-01-08T13:39:03.918Z,26.70
2023-01-08T13:42:02.582Z,32.47
2023-01-08T13:44:36.638Z,26.57
2023-01-08T13:47:17.205Z,24.33
2023-01-08T13:49:53.107Z,25.47
2023-01-08T13:52:40.745Z,29.47
2023-01-08T13:55:23.968Z,24.70
2023-01-08T13:57:57.650Z,30.03
2023-01-08T14:00:31.110Z,25.27
2023-01-08T14:03:01.247Z,27.83
2023-01-08T14:05:34.778Z,22.83
2023-01-08T14:08:03.480Z,31.20
2023-01-08T14:10:32.415Z,25.60
2023-01-08T14:13:08.634Z,25.30
2023-01-08T14:15:39.234Z,26.63
2023-01-08T14:18:08.010Z,27.83
2023-01-08T14:20:40.478Z,38.97
2023-01-08T14:23:12.430Z,31.73
2023-01-08T14:25:41.982Z,28.90
2023-01-08T14:28:17.644Z,25.50
2023-01-08T14:30:55.409Z,25.70
2023-01-08T14:33:35.880Z,40.87
2023-01-08T14:36:07.171Z,24.83
2023-01-08T14:38:35.733Z,27.53
2023-01-08T14:41:07.970Z,31.17
2023-01-08T14:43:44.281Z,22.90
2023-01-08T14:46:27.718Z,24.13
2023-01-08T14:48:57.604Z,25.30
2023-01-08T14:51:30.557Z,29.23
2023-01-08T14:54:06.291Z,23.23
2023-01-08T14:56:36.085Z,20.97
2023-01-08T14:59:11.880Z,20.73
2023-01-08T15:01:39.345Z,21.47
2023-01-08T15:04:17.206Z,18.87
2023-01-08T15:06:46.024Z,21.30
2023-01-08T15:09:32.170Z,19.10
2023-01-08T15:12:27.486Z,20.57
2023-01-08T15:14:57.027Z,21.90
2023-01-08T15:17:28.701Z,24.50
2023-01-08T15:19:59.413Z,19.47
2023-01-08T15:22:32.876Z,29.43
2023-01-08T15:25:04.558Z,18.43
2023-01-08T15:27:37.325Z,22.87
2023-01-08T15:30:09.278Z,19.63
2023-01-08T15:32:40.560Z,19.87
2023-01-08T15:35:16.701Z,27.37
2023-01-08T15:37:45.388Z,18.73
2023-01-08T15:40:14.213Z,25.43
2023-01-08T15:43:03.141Z,29.27
2023-01-08T15:45:32.605Z,27.60
2023-01-08T15:48:01.330Z,27.37
2023-01-08T15:50:32.867Z,21.67
2023-01-08T15:53:01.630Z,39.70
2023-01-08T15:55:32.344Z,24.90
2023-01-08T15:58:00.832Z,24.83
2023-01-08T16:00:28.786Z,20.33
2023-01-08T16:02:59.561Z,35.03
2023-01-08T16:05:30.546Z,26.03
2023-01-08T16:07:59.386Z,25.43
2023-01-08T16:10:29.136Z,21.47
2023-01-08T16:12:59.394Z,22.63
2023-01-08T16:15:30.860Z,19.20
2023-01-08T16:18:00.308Z,21.17
2023-01-08T16:20:28.669Z,21.73
2023-01-08T16:22:57.256Z,22.10
2023-01-08T16:25:24.817Z,40.00
2023-01-08T16:27:53.324Z,23.43
2023-01-08T16:30:22.527Z,22.97
2023-01-08T16:32:54.445Z,22.73
2023-01-08T16:35:23.126Z,25.43
2023-01-08T16:37:52.636Z,25.70
2023-01-08T16:40:23.095Z,25.00
2023-01-08T16:42:51.568Z,22.37
2023-01-08T16:45:20.067Z,25.43
2023-01-08T16:47:49.703Z,24.00
2023-01-08T16:50:18.874Z,25.03
2023-01-08T16:52:47.995Z,27.63
2023-01-08T16:55:17.095Z,26.50
2023-01-08T16:57:45.532Z,25.87
2023-01-08T17:00:13.979Z,24.90
2023-01-08T17:02:43.540Z,26.30
2023-01-08T17:05:12.354Z,26.77
2023-01-08T17:07:41.999Z,25.33
2023-01-08T17:10:10.818Z,27.03
2023-01-08T17:12:39.275Z,32.10
2023-01-08T17:15:08.227Z,29.07
2023-01-08T17:17:36.597Z,24.80
2023-01-08T17:20:05.803Z,31.03
2023-01-08T17:22:34.648Z,30.20
2023-01-08T17:25:03.410Z,27.37
2023-01-08T17:27:35.661Z,28.00
2023-01-08T17:30:04.858Z,29.23
2023-01-08T17:32:33.957Z,24.73
2023-01-08T17:35:02.528Z,25.63
2023-01-08T17:37:31.607Z,25.27
2023-01-08T17:40:01.329Z,24.27
2023-01-08T17:42:30.396Z,28.97
2023-01-08T17:45:03.005Z,21.20
2023-01-08T17:47:32.349Z,22.90
2023-01-08T17:50:03.384Z,17.57
2023-01-08T17:52:33.552Z,18.70
2023-01-08T17:55:02.745Z,18.60
2023-01-08T17:57:33.258Z,19.23
2023-01-08T18:00:00.268Z,21.10
2023-01-08T18:02:29.205Z,21.43
2023-01-08T18:04:56.990Z,20.57
2023-01-08T18:07:24.693Z,20.70
2023-01-08T18:09:54.363Z,26.23
2023-01-08T18:12:23.812Z,18.83
2023-01-08T18:14:52.433Z,18.50
2023-01-08T18:17:21.427Z,16.30
2023-01-08T18:19:51.387Z,15.00
2023-01-08T18:22:19.992Z,14.07
2023-01-08T18:24:48.519Z,14.23
2023-01-08T18:27:16.173Z,13.83
2023-01-08T18:29:44.505Z,17.20
2023-01-08T18:32:13.896Z,12.57
2023-01-08T18:34:42.313Z,12.73
2023-01-08T18:37:09.395Z,11.20
2023-01-08T18:39:37.020Z,12.00
2023-01-08T18:42:23.954Z,14.20
2023-01-08T18:44:55.970Z,15.30
2023-01-08T18:47:28.930Z,13.30
2023-01-08T18:50:03.063Z,10.43
2023-01-08T18:52:33.243Z,9.83
2023-01-08T18:55:00.984Z,10.67
2023-01-08T18:57:29.395Z,9.37
2023-01-08T18:59:58.751Z,9.80
2023-01-08T19:02:27.838Z,9.40
2023-01-08T19:04:56.240Z,9.40
2023-01-08T19:07:25.794Z,10.43
2023-01-08T19:09:57.005Z,11.03
2023-01-08T19:12:27.600Z,9.37
2023-01-08T19:14:56.144Z,13.23
2023-01-08T19:17:25.307Z,13.97
2023-01-08T19:19:54.000Z,24.90
2023-01-08T19:22:28.585Z,12.23
2023-01-08T19:24:56.930Z,12.87
2023-01-08T19:27:26.538Z,12.07
2023-01-08T19:29:55.423Z,13.37
2023-01-08T19:32:23.787Z,12.47
2023-01-08T19:34:53.562Z,12.00
2023-01-08T19:37:21.437Z,11.00
2023-01-08T19:39:49.782Z,14.47
2023-01-08T19:42:36.802Z,11.93
2023-01-08T19:45:06.467Z,10.30
2023-01-08T19:47:35.461Z,9.93
2023-01-08T19:50:03.189Z,13.70
2023-01-08T19:52:33.711Z,11.10
2023-01-08T19:55:02.471Z,8.57
2023-01-08T19:57:30.877Z,11.53
2023-01-08T19:59:59.358Z,11.60
2023-01-08T20:02:27.718Z,10.60
2023-01-08T20:04:57.780Z,10.30
2023-01-08T20:07:26.631Z,11.93
2023-01-08T20:09:55.043Z,9.20
2023-01-08T20:12:25.312Z,8.70
2023-01-08T20:14:53.031Z,9.43
2023-01-08T20:17:25.105Z,11.00
2023-01-08T20:19:53.854Z,9.60
2023-01-08T20:22:23.161Z,9.40
2023-01-08T20:24:53.183Z,10.10
2023-01-08T20:27:22.398Z,10.80
2023-01-08T20:29:50.751Z,9.97
2023-01-08T20:32:21.539Z,10.00
2023-01-08T20:34:50.471Z,10.53
2023-01-08T20:37:18.785Z,10.47
2023-01-08T20:39:47.541Z,9.33
2023-01-08T20:42:17.787Z,9.13
2023-01-08T20:44:55.124Z,9.97
2023-01-08T20:47:23.442Z,9.53
2023-01-08T20:49:51.016Z,8.47
2023-01-08T20:52:21.477Z,8.23
2023-01-08T20:54:49.142Z,9.03
2023-01-08T20:57:17.518Z,7.53
2023-01-08T20:59:46.232Z,7.67
2023-01-08T21:02:13.362Z,8.23
2023-01-08T21:04:41.690Z,7.07
2023-01-08T21:07:10.074Z,6.23
2023-01-08T21:09:40.267Z,4.57
2023-01-08T21:12:08.889Z,5.83
2023-01-08T21:14:39.258Z,5.27
2023-01-08T21:17:07.607Z,5.87
2023-01-08T21:19:36.054Z,6.43
2023-01-08T21:22:03.687Z,4.83
2023-01-08T21:24:32.044Z,6.27
2023-01-08T21:27:00.675Z,6.23
2023-01-08T21:29:28.704Z,6.73
2023-01-08T21:31:56.505Z,5.83
2023-01-08T21:34:24.249Z,5.93
2023-01-08T21:36:51.998Z,5.67
2023-01-08T21:39:19.600Z,6.87
2023-01-08T21:42:07.064Z,5.43
2023-01-08T21:44:53.956Z,4.83
2023-01-08T21:47:22.325Z,5.37
2023-01-08T21:49:50.044Z,5.60
2023-01-08T21:52:36.834Z,6.67
2023-01-08T21:55:04.805Z,4.70
2023-01-08T21:57:43.652Z,4.73
2023-01-08T22:00:13.884Z,3.77
2023-01-08T22:02:42.332Z,3.57
2023-01-08T22:05:12.214Z,3.83
2023-01-08T22:07:40.062Z,4.53
2023-01-08T22:10:09.262Z,5.30
2023-01-08T22:12:36.939Z,5.47
2023-01-08T22:15:05.005Z,5.00
2023-01-08T22:17:34.154Z,4.87
2023-01-08T22:20:02.054Z,5.87
2023-01-08T22:22:31.207Z,3.97
2023-01-08T22:24:59.547Z,4.13
2023-01-08T22:27:27.145Z,4.00
2023-01-08T22:29:54.568Z,3.23
2023-01-08T22:32:23.827Z,3.50
2023-01-08T22:34:53.050Z,2.77
2023-01-08T22:37:22.262Z,3.30
2023-01-08T22:39:49.954Z,2.90
2023-01-08T22:42:17.566Z,3.33
2023-01-08T22:44:45.323Z,4.03
2023-01-08T22:47:14.180Z,3.23
2023-01-08T22:49:42.458Z,3.50
2023-01-08T22:52:11.642Z,3.63
2023-01-08T22:54:40.030Z,3.37
2023-01-08T22:57:08.426Z,2.67
2023-01-08T22:59:35.463Z,3.10
2023-01-08T23:02:02.387Z,2.90
2023-01-08T23:04:29.976Z,3.10
2023-01-08T23:06:57.935Z,3.07
2023-01-08T23:09:25.806Z,2.57
2023-01-08T23:11:52.734Z,2.80
2023-01-08T23:14:21.078Z,2.90
2023-01-08T23:16:48.828Z,3.10
2023-01-08T23:19:17.170Z,3.50
2023-01-08T23:21:47.602Z,3.23
2023-01-08T23:24:16.004Z,3.00
2023-01-08T23:26:43.922Z,3.50
2023-01-08T23:29:12.501Z,3.13
2023-01-08T23:31:40.427Z,3.10
2023-01-08T23:34:08.060Z,4.07
2023-01-08T23:36:35.807Z,3.03
2023-01-08T23:39:05.414Z,3.10
2023-01-08T23:41:34.990Z,2.83
2023-01-08T23:44:08.599Z,3.40
2023-01-08T23:46:36.438Z,2.83
2023-01-08T23:49:04.778Z,3.30
2023-01-08T23:51:32.744Z,3.23
2023-01-08T23:54:02.136Z,3.10
2023-01-08T23:56:29.238Z,3.27
2023-01-08T23:58:57.359Z,3.00
